Back to top

Torrington, WY weather

Torrington Municipal Airport, Torrington, WY: 6/04/2020 04:53
Visibility10 statute milesclear sky
View 7-Day Forecast
Area Summary
Sky/CloudsSky Clear
Weather [last 24 hours]None
Pressure29.9 in.Hg (1013 hPa)
Dew Point46.9 °F (8.3 °C)
Relative Humidity89.2 %
Reading TimePrecipitation
24-hr ending 6/3@05:530.1 in. (2.54 mm)
Temperature50 °F (10 °C)red thermometer
Reading TimeMinimum to Maximum Temperature
6-hr ending 6/3@23:5357.9 °F to 81 °F (14.4 °C to 27.2 °C)
6-hr ending 6/3@17:5379 °F to 88 °F (26.1 °C to 31.1 °C)
6-hr ending 6/3@11:5357.9 °F to 84.9 °F (14.4 °C to 29.4 °C)
6-hr ending 6/3@05:5357.9 °F to 63 °F (14.4 °C to 17.2 °C)
24-hr ending 6/4@00:5357.9 °F to 88 °F (14.4 °C to 31.1 °C)
Wind4.6 MPH (4 KT) green arrow pointing at 0 degrees
Wind FromNorth (350 Degrees)
Rolling 24-hr Peak Wind54.1 MPH (47 KT) on 6/3@15:01
Rolling 24-hr Peak Wind FromNorth/Northwest (340 Degrees)
Twilight Begins04:46Sunshine Yesterday
Sunrise05:20N/A
Sunset20:31
Twilight Ends21:05
METARKTOR 041053Z AUTO 35004KT 10SM CLR 10/08 A2990 RMK AO2 SLP083 T01000083
Tags: